Terminal Aerodrome Forecast
Issued by NWS

Home | Current Version | Previous Version | Graphics & Text | Print | Product List | Glossary On
Versions: 1 2 3 4 5 6 7 8 9 10 11 12 13 14 15 16
519
FTUS42 KMHX 150559
TAFISO
TAF
KISO 150559Z 1506/1606 00000KT P6SM OVC016
     FM150900 VRB03KT 2SM BR SCT003 BKN009
     FM151300 00000KT P6SM SCT009
     FM151400 VRB03KT P6SM SCT050
      AMD LTD TO CLD VIS AND WIND=

USA.gov is the U.S. government's official web portal to all federal, state and local government web resources and services.